sensor_id;sensor_type;location;lat;lon;timestamp;P1;durP1;ratioP1;P2;durP2;ratioP2
57627;SDS011;43451;49.060;10.616;2023-03-01T00:00:49;27.27;;;13.60;;
57627;SDS011;43451;49.060;10.616;2023-03-01T00:03:15;24.45;;;12.20;;
57627;SDS011;43451;49.060;10.616;2023-03-01T00:05:46;28.30;;;13.02;;
57627;SDS011;43451;49.060;10.616;2023-03-01T00:08:12;26.15;;;12.93;;
57627;SDS011;43451;49.060;10.616;2023-03-01T00:10:38;26.90;;;13.13;;
57627;SDS011;43451;49.060;10.616;2023-03-01T00:13:03;28.67;;;13.88;;
57627;SDS011;43451;49.060;10.616;2023-03-01T00:15:30;24.60;;;12.45;;
57627;SDS011;43451;49.060;10.616;2023-03-01T00:17:56;27.55;;;13.18;;
57627;SDS011;43451;49.060;10.616;2023-03-01T00:20:22;24.17;;;12.52;;
57627;SDS011;43451;49.060;10.616;2023-03-01T00:22:48;30.27;;;12.82;;
57627;SDS011;43451;49.060;10.616;2023-03-01T00:25:13;26.00;;;13.25;;
57627;SDS011;43451;49.060;10.616;2023-03-01T00:27:39;28.15;;;13.93;;
57627;SDS011;43451;49.060;10.616;2023-03-01T00:30:04;26.85;;;13.15;;
57627;SDS011;43451;49.060;10.616;2023-03-01T00:32:30;27.45;;;12.52;;
57627;SDS011;43451;49.060;10.616;2023-03-01T00:34:56;27.75;;;13.93;;
57627;SDS011;43451;49.060;10.616;2023-03-01T00:37:22;27.20;;;13.00;;
57627;SDS011;43451;49.060;10.616;2023-03-01T00:39:48;26.73;;;13.30;;
57627;SDS011;43451;49.060;10.616;2023-03-01T00:42:14;27.85;;;13.10;;
57627;SDS011;43451;49.060;10.616;2023-03-01T00:44:41;27.10;;;13.35;;
57627;SDS011;43451;49.060;10.616;2023-03-01T00:47:06;27.33;;;13.10;;
57627;SDS011;43451;49.060;10.616;2023-03-01T00:49:32;24.65;;;12.30;;
57627;SDS011;43451;49.060;10.616;2023-03-01T00:51:57;27.30;;;13.68;;
57627;SDS011;43451;49.060;10.616;2023-03-01T00:54:23;27.08;;;13.10;;
57627;SDS011;43451;49.060;10.616;2023-03-01T00:56:48;30.95;;;13.35;;
57627;SDS011;43451;49.060;10.616;2023-03-01T00:59:14;24.73;;;12.68;;
57627;SDS011;43451;49.060;10.616;2023-03-01T01:01:39;29.45;;;12.93;;
57627;SDS011;43451;49.060;10.616;2023-03-01T01:04:09;26.33;;;12.63;;
57627;SDS011;43451;49.060;10.616;2023-03-01T01:06:39;25.80;;;13.02;;
57627;SDS011;43451;49.060;10.616;2023-03-01T01:09:10;25.98;;;13.40;;
57627;SDS011;43451;49.060;10.616;2023-03-01T01:11:42;27.85;;;12.70;;
57627;SDS011;43451;49.060;10.616;2023-03-01T01:14:09;26.15;;;12.95;;
57627;SDS011;43451;49.060;10.616;2023-03-01T01:16:34;28.80;;;13.48;;
57627;SDS011;43451;49.060;10.616;2023-03-01T01:19:00;25.77;;;12.98;;
57627;SDS011;43451;49.060;10.616;2023-03-01T01:21:25;26.23;;;13.82;;
57627;SDS011;43451;49.060;10.616;2023-03-01T01:23:52;28.10;;;13.38;;
57627;SDS011;43451;49.060;10.616;2023-03-01T01:26:21;27.23;;;13.20;;
57627;SDS011;43451;49.060;10.616;2023-03-01T01:28:48;27.52;;;13.32;;
57627;SDS011;43451;49.060;10.616;2023-03-01T01:31:14;25.70;;;13.45;;
57627;SDS011;43451;49.060;10.616;2023-03-01T01:33:40;29.08;;;12.68;;
57627;SDS011;43451;49.060;10.616;2023-03-01T01:36:06;26.25;;;12.85;;
57627;SDS011;43451;49.060;10.616;2023-03-01T01:38:32;25.35;;;12.45;;
57627;SDS011;43451;49.060;10.616;2023-03-01T01:40:59;27.42;;;13.18;;
57627;SDS011;43451;49.060;10.616;2023-03-01T01:43:25;24.02;;;12.02;;
57627;SDS011;43451;49.060;10.616;2023-03-01T01:45:57;27.13;;;11.95;;
57627;SDS011;43451;49.060;10.616;2023-03-01T01:48:34;24.38;;;11.77;;
57627;SDS011;43451;49.060;10.616;2023-03-01T01:51:13;23.52;;;12.60;;
57627;SDS011;43451;49.060;10.616;2023-03-01T01:53:43;23.77;;;12.25;;
57627;SDS011;43451;49.060;10.616;2023-03-01T01:56:11;26.08;;;12.40;;
57627;SDS011;43451;49.060;10.616;2023-03-01T01:58:39;28.42;;;13.07;;
57627;SDS011;43451;49.060;10.616;2023-03-01T02:01:07;27.45;;;12.88;;
57627;SDS011;43451;49.060;10.616;2023-03-01T02:03:33;27.15;;;12.85;;
57627;SDS011;43451;49.060;10.616;2023-03-01T02:06:06;24.95;;;12.60;;
57627;SDS011;43451;49.060;10.616;2023-03-01T02:08:42;25.35;;;12.30;;
57627;SDS011;43451;49.060;10.616;2023-03-01T02:11:09;23.63;;;12.40;;
57627;SDS011;43451;49.060;10.616;2023-03-01T02:13:39;26.08;;;12.73;;
57627;SDS011;43451;49.060;10.616;2023-03-01T02:16:08;29.00;;;13.13;;
57627;SDS011;43451;49.060;10.616;2023-03-01T02:18:35;29.08;;;13.93;;
57627;SDS011;43451;49.060;10.616;2023-03-01T02:23:40;29.23;;;13.63;;
57627;SDS011;43451;49.060;10.616;2023-03-01T02:26:08;28.92;;;13.65;;
57627;SDS011;43451;49.060;10.616;2023-03-01T02:28:42;25.98;;;12.77;;
57627;SDS011;43451;49.060;10.616;2023-03-01T02:31:10;28.33;;;13.52;;
57627;SDS011;43451;49.060;10.616;2023-03-01T02:33:59;27.75;;;13.02;;
57627;SDS011;43451;49.060;10.616;2023-03-01T02:36:30;27.33;;;13.13;;
57627;SDS011;43451;49.060;10.616;2023-03-01T02:39:00;26.48;;;12.50;;
57627;SDS011;43451;49.060;10.616;2023-03-01T02:41:28;23.33;;;12.27;;
57627;SDS011;43451;49.060;10.616;2023-03-01T02:43:56;25.25;;;12.52;;
57627;SDS011;43451;49.060;10.616;2023-03-01T02:46:23;28.17;;;13.77;;
57627;SDS011;43451;49.060;10.616;2023-03-01T02:48:54;25.73;;;13.20;;
57627;SDS011;43451;49.060;10.616;2023-03-01T02:56:36;25.33;;;12.63;;
57627;SDS011;43451;49.060;10.616;2023-03-01T02:59:02;26.90;;;12.70;;
57627;SDS011;43451;49.060;10.616;2023-03-01T03:01:28;29.20;;;13.30;;
57627;SDS011;43451;49.060;10.616;2023-03-01T03:04:02;25.58;;;13.35;;
57627;SDS011;43451;49.060;10.616;2023-03-01T03:06:31;26.20;;;13.48;;
57627;SDS011;43451;49.060;10.616;2023-03-01T03:08:58;30.25;;;13.65;;
57627;SDS011;43451;49.060;10.616;2023-03-01T03:11:23;27.45;;;13.32;;
57627;SDS011;43451;49.060;10.616;2023-03-01T03:13:49;27.20;;;13.05;;
57627;SDS011;43451;49.060;10.616;2023-03-01T03:16:15;29.65;;;13.30;;
57627;SDS011;43451;49.060;10.616;2023-03-01T03:18:40;28.30;;;13.23;;
57627;SDS011;43451;49.060;10.616;2023-03-01T03:21:09;27.00;;;13.75;;
57627;SDS011;43451;49.060;10.616;2023-03-01T03:23:37;25.42;;;12.57;;
57627;SDS011;43451;49.060;10.616;2023-03-01T03:26:03;25.45;;;13.48;;
57627;SDS011;43451;49.060;10.616;2023-03-01T03:28:30;27.67;;;13.27;;
57627;SDS011;43451;49.060;10.616;2023-03-01T03:30:59;26.73;;;13.25;;
57627;SDS011;43451;49.060;10.616;2023-03-01T03:33:31;26.65;;;13.50;;
57627;SDS011;43451;49.060;10.616;2023-03-01T03:35:57;27.00;;;13.23;;
57627;SDS011;43451;49.060;10.616;2023-03-01T03:38:23;26.38;;;13.10;;
57627;SDS011;43451;49.060;10.616;2023-03-01T03:40:50;31.23;;;14.02;;
57627;SDS011;43451;49.060;10.616;2023-03-01T03:43:27;25.42;;;13.30;;
57627;SDS011;43451;49.060;10.616;2023-03-01T03:45:53;26.13;;;13.23;;
57627;SDS011;43451;49.060;10.616;2023-03-01T03:48:19;28.25;;;13.27;;
57627;SDS011;43451;49.060;10.616;2023-03-01T03:50:51;27.65;;;13.68;;
57627;SDS011;43451;49.060;10.616;2023-03-01T03:53:19;29.38;;;13.40;;
57627;SDS011;43451;49.060;10.616;2023-03-01T03:55:45;26.27;;;12.70;;
57627;SDS011;43451;49.060;10.616;2023-03-01T03:58:14;26.58;;;12.43;;
57627;SDS011;43451;49.060;10.616;2023-03-01T04:00:42;28.63;;;13.47;;
57627;SDS011;43451;49.060;10.616;2023-03-01T04:03:09;26.77;;;12.80;;
57627;SDS011;43451;49.060;10.616;2023-03-01T04:05:37;29.27;;;12.73;;
57627;SDS011;43451;49.060;10.616;2023-03-01T04:08:03;26.20;;;12.73;;
57627;SDS011;43451;49.060;10.616;2023-03-01T04:10:44;26.92;;;13.50;;
57627;SDS011;43451;49.060;10.616;2023-03-01T04:13:13;29.42;;;13.68;;
57627;SDS011;43451;49.060;10.616;2023-03-01T04:15:40;33.83;;;13.75;;
57627;SDS011;43451;49.060;10.616;2023-03-01T04:18:08;29.02;;;14.18;;
57627;SDS011;43451;49.060;10.616;2023-03-01T04:20:35;31.23;;;14.00;;
57627;SDS011;43451;49.060;10.616;2023-03-01T04:25:42;30.50;;;13.30;;
57627;SDS011;43451;49.060;10.616;2023-03-01T04:28:11;29.85;;;14.00;;
57627;SDS011;43451;49.060;10.616;2023-03-01T04:30:37;29.20;;;12.90;;
57627;SDS011;43451;49.060;10.616;2023-03-01T04:33:04;25.95;;;13.00;;
57627;SDS011;43451;49.060;10.616;2023-03-01T04:35:30;29.55;;;13.43;;
57627;SDS011;43451;49.060;10.616;2023-03-01T04:37:56;29.50;;;14.05;;
57627;SDS011;43451;49.060;10.616;2023-03-01T04:40:22;25.20;;;12.63;;
57627;SDS011;43451;49.060;10.616;2023-03-01T04:42:47;31.08;;;13.27;;
57627;SDS011;43451;49.060;10.616;2023-03-01T04:45:13;28.77;;;13.25;;
57627;SDS011;43451;49.060;10.616;2023-03-01T04:47:39;26.83;;;13.20;;
57627;SDS011;43451;49.060;10.616;2023-03-01T04:50:06;27.50;;;13.25;;
57627;SDS011;43451;49.060;10.616;2023-03-01T04:52:32;32.55;;;13.85;;
57627;SDS011;43451;49.060;10.616;2023-03-01T04:54:58;28.33;;;13.60;;
57627;SDS011;43451;49.060;10.616;2023-03-01T04:57:23;30.52;;;13.40;;
57627;SDS011;43451;49.060;10.616;2023-03-01T04:59:49;32.92;;;14.43;;
57627;SDS011;43451;49.060;10.616;2023-03-01T05:02:14;48.20;;;20.20;;
57627;SDS011;43451;49.060;10.616;2023-03-01T05:04:40;33.42;;;14.32;;
57627;SDS011;43451;49.060;10.616;2023-03-01T05:07:05;30.63;;;13.85;;
57627;SDS011;43451;49.060;10.616;2023-03-01T05:09:31;38.25;;;16.35;;
57627;SDS011;43451;49.060;10.616;2023-03-01T05:11:56;30.63;;;14.63;;
57627;SDS011;43451;49.060;10.616;2023-03-01T05:14:22;32.65;;;15.07;;
57627;SDS011;43451;49.060;10.616;2023-03-01T05:16:47;29.95;;;14.65;;
57627;SDS011;43451;49.060;10.616;2023-03-01T05:19:13;35.53;;;17.85;;
57627;SDS011;43451;49.060;10.616;2023-03-01T05:21:40;32.30;;;15.60;;
57627;SDS011;43451;49.060;10.616;2023-03-01T05:24:25;34.67;;;15.90;;
57627;SDS011;43451;49.060;10.616;2023-03-01T05:26:50;31.15;;;14.52;;
57627;SDS011;43451;49.060;10.616;2023-03-01T05:31:53;55.65;;;21.05;;
57627;SDS011;43451;49.060;10.616;2023-03-01T05:34:27;64.40;;;28.35;;
57627;SDS011;43451;49.060;10.616;2023-03-01T05:36:55;47.55;;;22.23;;
57627;SDS011;43451;49.060;10.616;2023-03-01T05:39:22;34.75;;;16.80;;
57627;SDS011;43451;49.060;10.616;2023-03-01T05:41:54;29.20;;;14.65;;
57627;SDS011;43451;49.060;10.616;2023-03-01T05:44:22;32.83;;;15.02;;
57627;SDS011;43451;49.060;10.616;2023-03-01T05:46:48;35.72;;;16.85;;
57627;SDS011;43451;49.060;10.616;2023-03-01T05:49:14;44.35;;;23.67;;
57627;SDS011;43451;49.060;10.616;2023-03-01T05:51:40;38.00;;;21.38;;
57627;SDS011;43451;49.060;10.616;2023-03-01T05:54:07;31.83;;;16.33;;
57627;SDS011;43451;49.060;10.616;2023-03-01T05:56:34;28.20;;;13.77;;
57627;SDS011;43451;49.060;10.616;2023-03-01T05:59:01;33.25;;;14.20;;
57627;SDS011;43451;49.060;10.616;2023-03-01T06:01:27;33.13;;;14.30;;
57627;SDS011;43451;49.060;10.616;2023-03-01T06:03:53;30.27;;;13.73;;
57627;SDS011;43451;49.060;10.616;2023-03-01T06:06:18;179.73;;;52.83;;
57627;SDS011;43451;49.060;10.616;2023-03-01T06:08:44;388.35;;;98.53;;
57627;SDS011;43451;49.060;10.616;2023-03-01T06:11:09;246.95;;;68.35;;
57627;SDS011;43451;49.060;10.616;2023-03-01T06:13:35;65.50;;;24.33;;
57627;SDS011;43451;49.060;10.616;2023-03-01T06:16:03;36.08;;;15.40;;
57627;SDS011;43451;49.060;10.616;2023-03-01T06:18:30;33.78;;;13.90;;
57627;SDS011;43451;49.060;10.616;2023-03-01T06:20:55;33.40;;;14.32;;
57627;SDS011;43451;49.060;10.616;2023-03-01T06:23:22;30.75;;;13.90;;
57627;SDS011;43451;49.060;10.616;2023-03-01T06:25:48;31.85;;;14.48;;
57627;SDS011;43451;49.060;10.616;2023-03-01T06:28:14;37.75;;;15.15;;
57627;SDS011;43451;49.060;10.616;2023-03-01T06:30:39;30.20;;;14.10;;
57627;SDS011;43451;49.060;10.616;2023-03-01T06:33:05;30.73;;;14.18;;
57627;SDS011;43451;49.060;10.616;2023-03-01T06:35:30;31.30;;;14.25;;
57627;SDS011;43451;49.060;10.616;2023-03-01T06:37:57;32.88;;;14.10;;
57627;SDS011;43451;49.060;10.616;2023-03-01T06:40:23;28.63;;;13.60;;
57627;SDS011;43451;49.060;10.616;2023-03-01T06:42:50;32.38;;;14.32;;
57627;SDS011;43451;49.060;10.616;2023-03-01T06:45:17;29.92;;;13.55;;
57627;SDS011;43451;49.060;10.616;2023-03-01T06:47:44;29.92;;;13.23;;
57627;SDS011;43451;49.060;10.616;2023-03-01T06:50:09;32.60;;;13.50;;
57627;SDS011;43451;49.060;10.616;2023-03-01T06:52:37;29.77;;;13.57;;
57627;SDS011;43451;49.060;10.616;2023-03-01T06:55:03;31.75;;;13.40;;
57627;SDS011;43451;49.060;10.616;2023-03-01T06:57:29;30.27;;;14.15;;
57627;SDS011;43451;49.060;10.616;2023-03-01T06:59:55;31.77;;;14.32;;
57627;SDS011;43451;49.060;10.616;2023-03-01T07:02:20;32.72;;;13.95;;
57627;SDS011;43451;49.060;10.616;2023-03-01T07:04:46;33.38;;;13.73;;
57627;SDS011;43451;49.060;10.616;2023-03-01T07:07:13;32.75;;;14.15;;
57627;SDS011;43451;49.060;10.616;2023-03-01T07:09:39;35.25;;;13.95;;
57627;SDS011;43451;49.060;10.616;2023-03-01T07:12:04;30.00;;;13.23;;
57627;SDS011;43451;49.060;10.616;2023-03-01T07:14:30;32.60;;;14.27;;
57627;SDS011;43451;49.060;10.616;2023-03-01T07:16:55;29.27;;;13.45;;
57627;SDS011;43451;49.060;10.616;2023-03-01T07:19:21;32.47;;;13.95;;
57627;SDS011;43451;49.060;10.616;2023-03-01T07:21:47;31.05;;;14.10;;
57627;SDS011;43451;49.060;10.616;2023-03-01T07:24:13;31.98;;;14.13;;
57627;SDS011;43451;49.060;10.616;2023-03-01T07:26:38;44.35;;;22.20;;
57627;SDS011;43451;49.060;10.616;2023-03-01T07:29:05;35.22;;;14.93;;
57627;SDS011;43451;49.060;10.616;2023-03-01T07:31:32;38.45;;;15.93;;
57627;SDS011;43451;49.060;10.616;2023-03-01T07:33:57;35.30;;;15.63;;
57627;SDS011;43451;49.060;10.616;2023-03-01T07:36:23;41.38;;;16.10;;
57627;SDS011;43451;49.060;10.616;2023-03-01T07:38:49;36.03;;;15.75;;
57627;SDS011;43451;49.060;10.616;2023-03-01T07:41:15;33.45;;;15.30;;
57627;SDS011;43451;49.060;10.616;2023-03-01T07:43:41;32.90;;;14.20;;
57627;SDS011;43451;49.060;10.616;2023-03-01T07:46:06;32.25;;;14.38;;
57627;SDS011;43451;49.060;10.616;2023-03-01T07:48:32;35.88;;;15.25;;
57627;SDS011;43451;49.060;10.616;2023-03-01T07:51:02;33.80;;;15.13;;
57627;SDS011;43451;49.060;10.616;2023-03-01T07:53:29;33.50;;;15.05;;
57627;SDS011;43451;49.060;10.616;2023-03-01T07:56:09;31.95;;;15.07;;
57627;SDS011;43451;49.060;10.616;2023-03-01T07:58:37;34.63;;;14.63;;
57627;SDS011;43451;49.060;10.616;2023-03-01T08:01:05;30.83;;;14.25;;
57627;SDS011;43451;49.060;10.616;2023-03-01T08:03:32;32.90;;;14.80;;
57627;SDS011;43451;49.060;10.616;2023-03-01T08:06:01;30.20;;;14.80;;
57627;SDS011;43451;49.060;10.616;2023-03-01T08:08:29;30.15;;;14.30;;
57627;SDS011;43451;49.060;10.616;2023-03-01T08:11:01;29.73;;;14.38;;
57627;SDS011;43451;49.060;10.616;2023-03-01T08:13:28;33.78;;;15.60;;
57627;SDS011;43451;49.060;10.616;2023-03-01T08:15:54;35.88;;;16.92;;
57627;SDS011;43451;49.060;10.616;2023-03-01T08:18:20;30.73;;;14.50;;
57627;SDS011;43451;49.060;10.616;2023-03-01T08:20:46;31.98;;;16.40;;
57627;SDS011;43451;49.060;10.616;2023-03-01T08:23:12;29.95;;;14.65;;
57627;SDS011;43451;49.060;10.616;2023-03-01T08:25:38;32.20;;;14.88;;
57627;SDS011;43451;49.060;10.616;2023-03-01T08:28:03;30.60;;;15.55;;
57627;SDS011;43451;49.060;10.616;2023-03-01T08:30:29;32.25;;;15.32;;
57627;SDS011;43451;49.060;10.616;2023-03-01T08:32:55;37.25;;;16.50;;
57627;SDS011;43451;49.060;10.616;2023-03-01T08:35:20;31.60;;;15.85;;
57627;SDS011;43451;49.060;10.616;2023-03-01T08:37:47;35.13;;;15.18;;
57627;SDS011;43451;49.060;10.616;2023-03-01T08:40:13;30.73;;;15.65;;
57627;SDS011;43451;49.060;10.616;2023-03-01T08:42:39;34.55;;;17.20;;
57627;SDS011;43451;49.060;10.616;2023-03-01T08:45:07;31.88;;;14.95;;
57627;SDS011;43451;49.060;10.616;2023-03-01T08:47:35;38.10;;;19.88;;
57627;SDS011;43451;49.060;10.616;2023-03-01T08:50:00;32.85;;;16.02;;
57627;SDS011;43451;49.060;10.616;2023-03-01T08:52:26;32.70;;;15.93;;
57627;SDS011;43451;49.060;10.616;2023-03-01T08:54:52;28.83;;;15.32;;
57627;SDS011;43451;49.060;10.616;2023-03-01T08:57:18;37.80;;;20.42;;
57627;SDS011;43451;49.060;10.616;2023-03-01T08:59:43;31.05;;;14.90;;
57627;SDS011;43451;49.060;10.616;2023-03-01T09:02:14;32.95;;;15.55;;
57627;SDS011;43451;49.060;10.616;2023-03-01T09:04:42;32.08;;;15.38;;
57627;SDS011;43451;49.060;10.616;2023-03-01T09:07:07;35.75;;;16.08;;
57627;SDS011;43451;49.060;10.616;2023-03-01T09:09:34;31.88;;;15.57;;
57627;SDS011;43451;49.060;10.616;2023-03-01T09:12:00;28.55;;;15.23;;
57627;SDS011;43451;49.060;10.616;2023-03-01T09:14:26;32.47;;;15.98;;
57627;SDS011;43451;49.060;10.616;2023-03-01T09:16:51;29.20;;;15.75;;
57627;SDS011;43451;49.060;10.616;2023-03-01T09:19:17;34.20;;;15.60;;
57627;SDS011;43451;49.060;10.616;2023-03-01T09:21:42;31.40;;;16.42;;
57627;SDS011;43451;49.060;10.616;2023-03-01T09:24:17;32.10;;;16.27;;
57627;SDS011;43451;49.060;10.616;2023-03-01T09:26:45;34.50;;;15.63;;
57627;SDS011;43451;49.060;10.616;2023-03-01T09:29:11;29.73;;;15.43;;
57627;SDS011;43451;49.060;10.616;2023-03-01T09:31:38;32.58;;;16.67;;
57627;SDS011;43451;49.060;10.616;2023-03-01T09:34:03;31.17;;;16.30;;
57627;SDS011;43451;49.060;10.616;2023-03-01T09:36:30;35.40;;;17.15;;
57627;SDS011;43451;49.060;10.616;2023-03-01T09:38:57;33.10;;;15.73;;
57627;SDS011;43451;49.060;10.616;2023-03-01T09:41:43;29.95;;;15.85;;
57627;SDS011;43451;49.060;10.616;2023-03-01T09:44:38;30.83;;;15.52;;
57627;SDS011;43451;49.060;10.616;2023-03-01T09:47:11;33.38;;;15.50;;
57627;SDS011;43451;49.060;10.616;2023-03-01T09:49:41;31.17;;;15.52;;
57627;SDS011;43451;49.060;10.616;2023-03-01T09:52:31;30.42;;;16.77;;
57627;SDS011;43451;49.060;10.616;2023-03-01T09:55:12;31.17;;;16.40;;
57627;SDS011;43451;49.060;10.616;2023-03-01T09:57:45;29.48;;;14.88;;
57627;SDS011;43451;49.060;10.616;2023-03-01T10:11:05;30.30;;;15.70;;
57627;SDS011;43451;49.060;10.616;2023-03-01T10:16:54;29.17;;;14.70;;
57627;SDS011;43451;49.060;10.616;2023-03-01T10:19:32;28.67;;;15.07;;
57627;SDS011;43451;49.060;10.616;2023-03-01T10:22:14;29.08;;;15.38;;
57627;SDS011;43451;49.060;10.616;2023-03-01T10:24:46;28.13;;;15.50;;
57627;SDS011;43451;49.060;10.616;2023-03-01T10:32:42;27.20;;;14.82;;
57627;SDS011;43451;49.060;10.616;2023-03-01T10:38:09;26.08;;;14.52;;
57627;SDS011;43451;49.060;10.616;2023-03-01T10:40:36;28.40;;;15.63;;
57627;SDS011;43451;49.060;10.616;2023-03-01T10:43:16;27.27;;;14.85;;
57627;SDS011;43451;49.060;10.616;2023-03-01T10:45:42;29.58;;;15.23;;
57627;SDS011;43451;49.060;10.616;2023-03-01T10:50:33;28.40;;;14.75;;
57627;SDS011;43451;49.060;10.616;2023-03-01T10:53:02;26.75;;;14.50;;
57627;SDS011;43451;49.060;10.616;2023-03-01T10:55:36;28.27;;;15.40;;
57627;SDS011;43451;49.060;10.616;2023-03-01T10:58:07;48.42;;;16.10;;
57627;SDS011;43451;49.060;10.616;2023-03-01T11:03:33;27.75;;;14.48;;
57627;SDS011;43451;49.060;10.616;2023-03-01T11:06:02;29.23;;;14.40;;
57627;SDS011;43451;49.060;10.616;2023-03-01T11:08:30;29.33;;;15.65;;
57627;SDS011;43451;49.060;10.616;2023-03-01T11:11:14;28.08;;;13.82;;
57627;SDS011;43451;49.060;10.616;2023-03-01T11:16:36;26.23;;;13.63;;
57627;SDS011;43451;49.060;10.616;2023-03-01T11:19:24;27.42;;;14.23;;
57627;SDS011;43451;49.060;10.616;2023-03-01T11:21:57;26.05;;;13.38;;
57627;SDS011;43451;49.060;10.616;2023-03-01T11:24:26;26.73;;;13.18;;
57627;SDS011;43451;49.060;10.616;2023-03-01T11:26:55;26.33;;;13.05;;
57627;SDS011;43451;49.060;10.616;2023-03-01T11:29:30;24.70;;;13.25;;
57627;SDS011;43451;49.060;10.616;2023-03-01T11:34:49;24.35;;;12.63;;
57627;SDS011;43451;49.060;10.616;2023-03-01T11:40:22;24.35;;;12.70;;
57627;SDS011;43451;49.060;10.616;2023-03-01T11:43:26;23.02;;;12.80;;
57627;SDS011;43451;49.060;10.616;2023-03-01T11:57:42;25.65;;;13.68;;
57627;SDS011;43451;49.060;10.616;2023-03-01T12:00:21;23.55;;;13.07;;
57627;SDS011;43451;49.060;10.616;2023-03-01T12:03:19;21.58;;;12.23;;
57627;SDS011;43451;49.060;10.616;2023-03-01T12:08:35;22.73;;;12.75;;
57627;SDS011;43451;49.060;10.616;2023-03-01T12:11:13;24.52;;;13.60;;
57627;SDS011;43451;49.060;10.616;2023-03-01T12:27:47;30.25;;;12.77;;
57627;SDS011;43451;49.060;10.616;2023-03-01T12:30:29;23.95;;;12.57;;
57627;SDS011;43451;49.060;10.616;2023-03-01T12:41:11;23.90;;;12.55;;
57627;SDS011;43451;49.060;10.616;2023-03-01T12:49:24;25.15;;;14.40;;
57627;SDS011;43451;49.060;10.616;2023-03-01T12:54:35;21.05;;;12.52;;
57627;SDS011;43451;49.060;10.616;2023-03-01T13:00:06;24.95;;;12.85;;
57627;SDS011;43451;49.060;10.616;2023-03-01T13:03:31;22.92;;;11.95;;
57627;SDS011;43451;49.060;10.616;2023-03-01T13:06:11;23.05;;;12.13;;
57627;SDS011;43451;49.060;10.616;2023-03-01T13:08:47;20.75;;;12.23;;
57627;SDS011;43451;49.060;10.616;2023-03-01T13:11:18;57.53;;;19.48;;
57627;SDS011;43451;49.060;10.616;2023-03-01T13:13:48;23.58;;;12.13;;
57627;SDS011;43451;49.060;10.616;2023-03-01T13:16:19;28.67;;;11.63;;
57627;SDS011;43451;49.060;10.616;2023-03-01T13:19:12;20.75;;;10.77;;
57627;SDS011;43451;49.060;10.616;2023-03-01T13:21:49;20.25;;;11.32;;
57627;SDS011;43451;49.060;10.616;2023-03-01T13:24:58;25.00;;;12.48;;
57627;SDS011;43451;49.060;10.616;2023-03-01T13:32:29;21.13;;;11.45;;
57627;SDS011;43451;49.060;10.616;2023-03-01T13:35:40;20.80;;;11.38;;
57627;SDS011;43451;49.060;10.616;2023-03-01T13:37:51;17.10;;;11.10;;
57627;SDS011;43451;49.060;10.616;2023-03-01T13:42:49;23.83;;;12.88;;
57627;SDS011;43451;49.060;10.616;2023-03-01T13:48:18;19.83;;;11.65;;
57627;SDS011;43451;49.060;10.616;2023-03-01T13:50:55;19.27;;;11.55;;
57627;SDS011;43451;49.060;10.616;2023-03-01T13:53:26;25.35;;;12.68;;
57627;SDS011;43451;49.060;10.616;2023-03-01T13:56:06;21.40;;;11.73;;
57627;SDS011;43451;49.060;10.616;2023-03-01T13:58:49;22.45;;;11.85;;
57627;SDS011;43451;49.060;10.616;2023-03-01T14:01:26;20.80;;;11.25;;
57627;SDS011;43451;49.060;10.616;2023-03-01T14:06:23;24.35;;;12.25;;
57627;SDS011;43451;49.060;10.616;2023-03-01T14:08:52;21.48;;;11.23;;
57627;SDS011;43451;49.060;10.616;2023-03-01T14:19:45;23.17;;;11.57;;
57627;SDS011;43451;49.060;10.616;2023-03-01T14:24:39;20.23;;;12.30;;
57627;SDS011;43451;49.060;10.616;2023-03-01T14:27:12;21.65;;;12.30;;
57627;SDS011;43451;49.060;10.616;2023-03-01T14:29:39;21.88;;;12.13;;
57627;SDS011;43451;49.060;10.616;2023-03-01T14:32:09;21.30;;;12.02;;
57627;SDS011;43451;49.060;10.616;2023-03-01T14:34:45;57.67;;;12.68;;
57627;SDS011;43451;49.060;10.616;2023-03-01T14:39:57;20.75;;;12.25;;
57627;SDS011;43451;49.060;10.616;2023-03-01T14:42:25;21.77;;;12.05;;
57627;SDS011;43451;49.060;10.616;2023-03-01T14:44:55;18.40;;;11.13;;
57627;SDS011;43451;49.060;10.616;2023-03-01T14:50:00;19.42;;;11.10;;
57627;SDS011;43451;49.060;10.616;2023-03-01T14:52:35;26.73;;;12.18;;
57627;SDS011;43451;49.060;10.616;2023-03-01T14:55:05;18.90;;;11.50;;
57627;SDS011;43451;49.060;10.616;2023-03-01T14:57:42;19.42;;;11.55;;
57627;SDS011;43451;49.060;10.616;2023-03-01T15:00:10;27.58;;;12.27;;
57627;SDS011;43451;49.060;10.616;2023-03-01T15:03:20;24.48;;;13.05;;
57627;SDS011;43451;49.060;10.616;2023-03-01T15:05:56;20.42;;;11.93;;
57627;SDS011;43451;49.060;10.616;2023-03-01T15:08:23;22.48;;;12.27;;
57627;SDS011;43451;49.060;10.616;2023-03-01T15:10:57;23.90;;;13.13;;
57627;SDS011;43451;49.060;10.616;2023-03-01T15:13:41;23.90;;;13.38;;
57627;SDS011;43451;49.060;10.616;2023-03-01T15:16:09;21.60;;;12.45;;
57627;SDS011;43451;49.060;10.616;2023-03-01T15:18:47;24.60;;;12.80;;
57627;SDS011;43451;49.060;10.616;2023-03-01T15:21:24;21.58;;;11.65;;
57627;SDS011;43451;49.060;10.616;2023-03-01T15:23:57;21.27;;;11.68;;
57627;SDS011;43451;49.060;10.616;2023-03-01T15:26:49;20.30;;;12.00;;
57627;SDS011;43451;49.060;10.616;2023-03-01T15:29:19;21.15;;;11.95;;
57627;SDS011;43451;49.060;10.616;2023-03-01T15:32:00;21.63;;;12.70;;
57627;SDS011;43451;49.060;10.616;2023-03-01T15:34:32;19.80;;;12.02;;
57627;SDS011;43451;49.060;10.616;2023-03-01T15:37:05;21.42;;;12.45;;
57627;SDS011;43451;49.060;10.616;2023-03-01T15:39:52;24.55;;;12.73;;
57627;SDS011;43451;49.060;10.616;2023-03-01T15:45:10;27.58;;;15.15;;
57627;SDS011;43451;49.060;10.616;2023-03-01T15:47:46;23.85;;;12.73;;
57627;SDS011;43451;49.060;10.616;2023-03-01T15:50:27;26.40;;;13.02;;
57627;SDS011;43451;49.060;10.616;2023-03-01T15:52:55;22.90;;;12.95;;
57627;SDS011;43451;49.060;10.616;2023-03-01T15:55:24;22.00;;;12.13;;
57627;SDS011;43451;49.060;10.616;2023-03-01T15:58:12;22.15;;;12.40;;
57627;SDS011;43451;49.060;10.616;2023-03-01T16:00:39;21.20;;;12.77;;
57627;SDS011;43451;49.060;10.616;2023-03-01T16:03:05;25.13;;;14.73;;
57627;SDS011;43451;49.060;10.616;2023-03-01T16:05:33;27.55;;;12.38;;
57627;SDS011;43451;49.060;10.616;2023-03-01T16:07:59;23.45;;;12.98;;
57627;SDS011;43451;49.060;10.616;2023-03-01T16:10:25;24.63;;;13.30;;
57627;SDS011;43451;49.060;10.616;2023-03-01T16:12:52;28.55;;;15.00;;
57627;SDS011;43451;49.060;10.616;2023-03-01T16:15:20;29.88;;;17.00;;
57627;SDS011;43451;49.060;10.616;2023-03-01T16:17:49;24.50;;;14.48;;
57627;SDS011;43451;49.060;10.616;2023-03-01T16:20:15;24.42;;;13.40;;
57627;SDS011;43451;49.060;10.616;2023-03-01T16:22:41;25.90;;;14.00;;
57627;SDS011;43451;49.060;10.616;2023-03-01T16:25:09;27.45;;;14.15;;
57627;SDS011;43451;49.060;10.616;2023-03-01T16:27:38;24.65;;;13.30;;
57627;SDS011;43451;49.060;10.616;2023-03-01T16:32:32;26.85;;;13.88;;
57627;SDS011;43451;49.060;10.616;2023-03-01T16:34:57;28.35;;;15.23;;